Time;durP1;ratioP1;P1;durP2;ratioP2;P2;SDS_P1;SDS_P2;PMS_P1;PMS_P2;Temp;Humidity;BMP_temperature;BMP_pressure;BME280_temperature;BME280_humidity;BME280_pressure;Samples;Min_cycle;Max_cycle;Signal;HPM_P1;HPM_P2
2021/09/16 00:12:33;;;;;;;14.43;10.40;;;;;;;17.18;100.00;100202.23;713793;1200;115203;-69
2021/09/16 00:27:35;;;;;;;15.68;11.30;;;;;;;17.20;100.00;100193.09;713864;1200;115908;-69
2021/09/16 00:42:38;;;;;;;12.33;9.67;;;;;;;17.10;100.00;100179.28;713825;1200;116031;-70
2021/09/16 00:57:48;;;;;;;14.33;10.73;;;;;;;17.12;100.00;100178.09;713767;1175;115672;-68
2021/09/16 01:12:51;;;;;;;13.85;10.75;;;;;;;17.08;100.00;100168.86;713901;1203;115064;-69
2021/09/16 01:27:58;;;;;;;17.43;11.28;;;;;;;16.96;100.00;100163.18;713655;1202;114728;-71
2021/09/16 01:43:02;;;;;;;15.87;11.63;;;;;;;16.87;100.00;100144.88;713908;1200;116198;-69
2021/09/16 01:58:04;;;;;;;17.45;11.78;;;;;;;16.82;100.00;100126.05;713705;1200;116122;-70
2021/09/16 02:13:06;;;;;;;19.40;13.38;;;;;;;16.73;100.00;100112.85;713715;1200;115040;-70
2021/09/16 02:28:08;;;;;;;20.13;12.73;;;;;;;16.64;100.00;100098.88;713792;1203;115947;-69
2021/09/16 02:43:10;;;;;;;16.13;12.63;;;;;;;16.59;100.00;100084.55;713920;1177;114479;-70
2021/09/16 02:58:13;;;;;;;17.67;12.93;;;;;;;16.61;100.00;100063.98;713816;1202;115033;-70
2021/09/16 03:13:15;;;;;;;17.38;12.58;;;;;;;16.61;100.00;100050.75;713730;1199;115723;-69
2021/09/16 03:28:17;;;;;;;18.73;12.33;;;;;;;16.62;100.00;100036.51;713889;1199;116059;-70
2021/09/16 03:43:19;;;;;;;18.35;12.35;;;;;;;16.62;100.00;100018.78;713886;1176;115025;-70
2021/09/16 03:58:21;;;;;;;17.23;12.60;;;;;;;16.68;100.00;100004.02;713724;1202;114332;-69
2021/09/16 04:13:24;;;;;;;19.05;12.95;;;;;;;16.69;100.00;99987.09;713867;1200;114430;-70
2021/09/16 04:28:26;;;;;;;18.58;12.18;;;;;;;16.82;100.00;99981.16;714077;1178;114156;-69
2021/09/16 04:43:28;;;;;;;18.33;13.15;;;;;;;16.93;100.00;99979.91;714082;1202;114565;-69
2021/09/16 04:58:31;;;;;;;19.38;13.55;;;;;;;16.94;100.00;99981.55;713934;1191;115471;-69
2021/09/16 05:13:33;;;;;;;26.33;15.73;;;;;;;16.89;100.00;99983.90;713963;1200;114748;-69
2021/09/16 05:28:35;;;;;;;19.20;15.43;;;;;;;16.80;100.00;99985.84;714198;1199;115507;-69
2021/09/16 05:43:37;;;;;;;22.07;15.67;;;;;;;16.82;100.00;99975.87;714012;1202;115449;-70
2021/09/16 05:58:39;;;;;;;43.93;27.25;;;;;;;16.88;100.00;99967.20;714232;1203;115855;-69
2021/09/16 06:13:41;;;;;;;29.63;17.67;;;;;;;16.79;100.00;99947.92;714159;1202;115847;-70
2021/09/16 06:28:44;;;;;;;28.68;18.08;;;;;;;16.76;100.00;99948.30;714063;1199;114297;-70
2021/09/16 06:43:46;;;;;;;25.00;17.98;;;;;;;16.80;100.00;99954.87;714087;1202;115091;-70
2021/09/16 06:58:48;;;;;;;25.28;19.13;;;;;;;16.76;100.00;99948.30;714181;1200;114418;-79
2021/09/16 07:13:51;;;;;;;28.48;19.08;;;;;;;16.83;100.00;99964.27;714359;1199;114037;-82
2021/09/16 07:28:53;;;;;;;30.27;20.80;;;;;;;16.88;100.00;99947.81;714335;1203;115507;-72
2021/09/16 07:43:55;;;;;;;26.48;19.58;;;;;;;16.90;100.00;99956.44;714286;1200;114167;-72
2021/09/16 07:58:57;;;;;;;27.73;19.55;;;;;;;17.41;100.00;99951.11;714152;1200;115639;-72
2021/09/16 08:14:00;;;;;;;30.23;19.30;;;;;;;17.56;100.00;99950.23;714269;1200;115827;-72
2021/09/16 08:29:02;;;;;;;81.38;42.80;;;;;;;17.34;100.00;99958.19;714424;1199;114312;-72
2021/09/16 08:44:06;;;;;;;32.53;22.00;;;;;;;17.27;100.00;99939.53;714948;1200;114593;-72
2021/09/16 08:59:08;;;;;;;34.13;23.50;;;;;;;17.30;100.00;99930.39;714946;1203;114575;-72
2021/09/16 09:14:17;;;;;;;36.00;22.98;;;;;;;17.40;100.00;99933.55;715216;1202;114824;-72
2021/09/16 09:29:19;;;;;;;33.43;23.13;;;;;;;17.42;100.00;99949.27;715764;1200;114662;-73
2021/09/16 09:44:42;;;;;;;40.95;26.55;;;;;;;17.38;100.00;99950.66;714343;1177;114143;-73
2021/09/16 09:59:56;;;;;;;37.23;26.15;;;;;;;17.46;100.00;99938.11;714469;1203;115038;-73
2021/09/16 10:15:01;;;;;;;35.70;24.58;;;;;;;17.66;100.00;99940.14;715621;1199;114013;-72
2021/09/16 10:30:23;;;;;;;36.13;27.98;;;;;;;17.73;100.00;99942.85;716183;1199;115846;-70
2021/09/16 10:45:31;;;;;;;42.33;29.37;;;;;;;18.07;100.00;99936.83;714580;1203;114365;-73
2021/09/16 11:00:39;;;;;;;43.38;30.53;;;;;;;18.33;100.00;99940.70;714423;1203;114287;-75
2021/09/16 11:15:42;;;;;;;44.13;31.90;;;;;;;18.76;100.00;99932.53;714485;1175;114475;-74
2021/09/16 11:31:05;;;;;;;58.00;39.33;;;;;;;18.91;100.00;99928.94;714471;1199;115769;-69
2021/09/16 11:46:14;;;;;;;54.90;36.93;;;;;;;19.25;100.00;99929.88;714501;1200;115515;-72
2021/09/16 12:01:17;;;;;;;;;;;;;;;19.12;100.00;99920.02;716655;1203;116019;-72
2021/09/16 12:16:29;;;;;;;50.98;31.40;;;;;;;19.07;100.00;99925.95;715133;1203;100267;-72
2021/09/16 12:31:35;;;;;;;62.83;39.83;;;;;;;19.11;100.00;99919.21;714282;1199;115768;-70
2021/09/16 12:46:46;;;;;;;67.58;41.38;;;;;;;18.88;100.00;99916.03;714321;1203;114631;-69
2021/09/16 13:01:49;;;;;;;57.30;34.83;;;;;;;19.08;100.00;99916.13;714944;1199;114709;-70
2021/09/16 13:16:53;;;;;;;54.28;34.25;;;;;;;19.08;100.00;99903.67;715955;1203;116090;-69
2021/09/16 13:31:55;;;;;;;52.25;32.80;;;;;;;19.10;100.00;99904.27;714935;1200;114579;-70
2021/09/16 13:46:58;;;;;;;51.75;31.85;;;;;;;19.13;100.00;99903.05;714631;1175;114530;-70
2021/09/16 14:02:00;;;;;;;55.77;34.07;;;;;;;19.22;100.00;99904.51;714473;1202;114623;-71
2021/09/16 14:17:03;;;;;;;57.08;33.05;;;;;;;19.19;100.00;99904.08;713915;1199;115673;-70
2021/09/16 14:32:08;;;;;;;55.78;33.13;;;;;;;19.25;100.00;99898.77;714207;1199;115844;-71
2021/09/16 14:47:11;;;;;;;53.90;33.13;;;;;;;19.64;100.00;99909.69;714140;1202;115957;-70
2021/09/16 15:02:13;;;;;;;56.13;34.47;;;;;;;19.83;100.00;99912.59;714367;1199;114738;-70
2021/09/16 15:17:16;;;;;;;65.85;40.35;;;;;;;19.84;100.00;99922.22;714603;1199;114307;-70
2021/09/16 15:32:18;;;;;;;46.53;29.68;;;;;;;20.17;100.00;99902.73;714446;1175;114274;-71
2021/09/16 15:47:21;;;;;;;108.15;57.55;;;;;;;20.19;100.00;99898.00;714119;1177;113656;-70
2021/09/16 16:02:23;;;;;;;166.35;108.68;;;;;;;20.13;100.00;99904.98;714075;1199;116025;-71
2021/09/16 16:17:26;;;;;;;126.08;69.75;;;;;;;20.00;100.00;99916.45;715290;1199;115427;-71
2021/09/16 16:32:28;;;;;;;67.40;44.18;;;;;;;19.82;100.00;99917.07;714179;1200;116025;-72
2021/09/16 16:47:31;;;;;;;97.33;42.98;;;;;;;19.65;100.00;99924.64;714327;1199;114754;-73
2021/09/16 17:02:33;;;;;;;66.78;40.80;;;;;;;19.59;100.00;99933.42;714899;1199;115415;-72
2021/09/16 17:17:38;;;;;;;79.43;47.53;;;;;;;19.53;100.00;99923.58;714149;1200;114458;-71
2021/09/16 17:32:41;;;;;;;198.25;112.53;;;;;;;19.39;100.00;99920.91;714244;1199;115161;-71
2021/09/16 17:47:43;;;;;;;133.45;81.58;;;;;;;19.25;100.00;99932.53;713897;1203;115132;-71
2021/09/16 18:02:46;;;;;;;60.68;38.10;;;;;;;19.12;100.00;99935.97;713857;1203;114930;-71
2021/09/16 18:17:49;;;;;;;90.08;54.50;;;;;;;19.12;100.00;99925.34;714068;1176;114850;-72
2021/09/16 18:32:53;;;;;;;56.25;35.70;;;;;;;18.93;100.00;99932.23;713874;1177;114326;-72
2021/09/16 18:47:55;;;;;;;55.77;33.80;;;;;;;18.87;100.00;99935.65;713867;1199;115132;-73
2021/09/16 19:03:00;;;;;;;57.08;35.05;;;;;;;18.81;100.00;99931.14;713853;1177;114327;-73
2021/09/16 19:18:02;;;;;;;63.28;37.00;;;;;;;18.77;100.00;99938.69;714579;1202;114437;-72
2021/09/16 19:33:16;;;;;;;57.83;32.40;;;;;;;18.79;100.00;99942.78;714401;1200;114764;-72
2021/09/16 19:48:19;;;;;;;57.23;33.30;;;;;;;18.72;100.00;99936.60;714206;1199;114431;-72
2021/09/16 20:03:22;;;;;;;59.48;34.08;;;;;;;18.75;100.00;99924.77;714213;1199;115603;-71
2021/09/16 20:18:25;;;;;;;46.50;29.03;;;;;;;18.73;100.00;99922.31;714675;1199;114405;-72
2021/09/16 20:33:28;;;;;;;53.88;29.38;;;;;;;18.69;100.00;99926.38;714311;1202;114305;-71
2021/09/16 20:48:31;;;;;;;60.43;34.87;;;;;;;18.69;100.00;99920.26;713951;1200;114799;-71
2021/09/16 21:03:34;;;;;;;67.43;37.50;;;;;;;18.58;100.00;99910.98;714135;1199;114418;-72
2021/09/16 21:18:36;;;;;;;54.28;27.68;;;;;;;18.50;100.00;99916.47;714102;1203;113729;-72
2021/09/16 21:33:39;;;;;;;36.83;23.30;;;;;;;18.36;100.00;99916.41;713819;1202;115658;-72
2021/09/16 21:48:41;;;;;;;43.78;24.70;;;;;;;18.36;100.00;99919.05;713878;1203;114443;-71
2021/09/16 22:03:44;;;;;;;34.88;22.38;;;;;;;18.37;100.00;99927.83;713991;1203;114718;-72
2021/09/16 22:18:46;;;;;;;36.95;21.45;;;;;;;18.47;100.00;99930.95;714634;1199;115537;-72
2021/09/16 22:33:49;;;;;;;43.93;26.50;;;;;;;18.37;100.00;99922.52;713958;1200;114572;-71
2021/09/16 22:48:51;;;;;;;41.90;25.83;;;;;;;18.25;100.00;99922.24;714388;1202;114798;-71
2021/09/16 23:03:55;;;;;;;35.75;22.15;;;;;;;18.32;100.00;99915.16;714689;1202;115793;-72
2021/09/16 23:18:57;;;;;;;38.68;23.15;;;;;;;18.37;100.00;99907.42;714453;1200;114462;-71
2021/09/16 23:33:59;;;;;;;34.13;22.03;;;;;;;18.35;100.00;99892.70;714040;1202;115921;-71
2021/09/16 23:49:02;;;;;;;38.20;22.90;;;;;;;18.25;100.00;99896.53;713881;1199;114470;-71
